createdAt,value
2022-09-04T00:00:40.167Z,61.14
2022-09-04T00:01:38.815Z,61.14
2022-09-04T00:02:38.128Z,61.24
2022-09-04T00:03:37.136Z,61.24
2022-09-04T00:04:37.233Z,61.24
2022-09-04T00:05:37.086Z,61.37
2022-09-04T00:06:37.078Z,61.37
2022-09-04T00:07:37.068Z,61.47
2022-09-04T00:08:37.055Z,61.47
2022-09-04T00:09:37.037Z,61.58
2022-09-04T00:10:37.048Z,61.68
2022-09-04T00:11:37.008Z,61.78
2022-09-04T00:12:36.998Z,61.88
2022-09-04T00:13:36.991Z,61.98
2022-09-04T00:14:36.969Z,62.08
2022-09-04T00:15:36.950Z,62.18
2022-09-04T00:16:37.025Z,62.29
2022-09-04T00:17:36.933Z,62.41
2022-09-04T00:18:36.912Z,62.52
2022-09-04T00:19:39.901Z,62.62
2022-09-04T00:20:39.937Z,62.82
2022-09-04T00:21:36.873Z,62.82
2022-09-04T00:22:36.893Z,62.92
2022-09-04T00:23:36.853Z,63.02
2022-09-04T00:24:36.844Z,63.23
2022-09-04T00:25:36.816Z,63.23
2022-09-04T00:26:36.871Z,63.43
2022-09-04T00:27:36.791Z,63.56
2022-09-04T00:28:36.792Z,63.66
2022-09-04T00:29:36.766Z,63.76
2022-09-04T00:30:36.845Z,63.86
2022-09-04T00:31:36.747Z,63.86
2022-09-04T00:32:36.768Z,64.07
2022-09-04T00:33:36.737Z,64.17
2022-09-04T00:34:36.708Z,64.17
2022-09-04T00:35:36.687Z,64.27
2022-09-04T00:36:36.678Z,64.37
2022-09-04T00:37:36.688Z,64.47
2022-09-04T00:38:36.649Z,64.58
2022-09-04T00:39:39.684Z,64.67
2022-09-04T00:40:39.659Z,64.78
2022-09-04T00:41:36.600Z,64.91
2022-09-04T00:42:36.640Z,64.91
2022-09-04T00:43:36.571Z,65.11
2022-09-04T00:44:36.573Z,65.21
2022-09-04T00:45:36.637Z,65.31
2022-09-04T00:46:36.551Z,65.42
2022-09-04T00:47:36.573Z,65.52
2022-09-04T00:48:36.604Z,65.62
2022-09-04T00:49:36.517Z,65.85
2022-09-04T00:50:36.519Z,65.95
2022-09-04T00:51:36.484Z,66.05
2022-09-04T00:52:37.155Z,66.05
2022-09-04T00:53:36.501Z,66.05
2022-09-04T00:54:36.434Z,66.16
2022-09-04T00:55:36.430Z,66.26
2022-09-04T00:56:36.404Z,66.46
2022-09-04T00:57:36.419Z,66.46
2022-09-04T00:58:36.416Z,66.46
2022-09-04T00:59:39.388Z,66.66
2022-09-04T01:00:39.367Z,66.77
2022-09-04T01:01:36.741Z,66.77
2022-09-04T01:02:36.401Z,66.97
2022-09-04T01:03:36.309Z,66.97
2022-09-04T01:04:36.327Z,66.97
2022-09-04T01:05:36.297Z,66.86
2022-09-04T01:06:36.289Z,67.07
2022-09-04T01:07:36.260Z,67.17
2022-09-04T01:08:36.244Z,67.30
2022-09-04T01:09:36.229Z,67.30
2022-09-04T01:10:36.243Z,67.50
2022-09-04T01:11:36.221Z,67.61
2022-09-04T01:12:36.178Z,67.61
2022-09-04T01:13:36.178Z,67.71
2022-09-04T01:14:36.153Z,67.81
2022-09-04T01:15:36.162Z,67.91
2022-09-04T01:16:36.186Z,68.01
2022-09-04T01:17:36.155Z,68.01
2022-09-04T01:18:36.115Z,68.12
2022-09-04T01:19:39.085Z,68.12
2022-09-04T01:20:39.111Z,68.12
2022-09-04T01:21:36.098Z,68.22
2022-09-04T01:22:36.178Z,68.32
2022-09-04T01:23:36.038Z,68.32
2022-09-04T01:24:36.031Z,68.32
2022-09-04T01:25:36.018Z,68.32
2022-09-04T01:26:36.014Z,68.32
2022-09-04T01:27:35.980Z,68.55
2022-09-04T01:28:35.991Z,68.55
2022-09-04T01:29:35.960Z,68.66
2022-09-04T01:30:35.952Z,68.86
2022-09-04T01:31:35.960Z,68.96
2022-09-04T01:32:35.911Z,69.17
2022-09-04T01:33:35.902Z,69.26
2022-09-04T01:34:35.909Z,69.26
2022-09-04T01:35:35.873Z,69.37
2022-09-04T01:36:35.863Z,69.57
2022-09-04T01:37:35.844Z,69.67
2022-09-04T01:38:35.864Z,69.81
2022-09-04T01:39:38.865Z,69.91
2022-09-04T01:40:38.835Z,70.01
2022-09-04T01:41:38.499Z,70.01
2022-09-04T01:42:35.788Z,70.11
2022-09-04T01:43:35.758Z,70.21
2022-09-04T01:44:35.796Z,70.31
2022-09-04T01:45:35.755Z,70.42
2022-09-04T01:46:35.729Z,70.62
2022-09-04T01:47:35.730Z,70.62
2022-09-04T01:48:35.691Z,70.82
2022-09-04T01:49:35.692Z,70.82
2022-09-04T01:50:35.742Z,70.92
2022-09-04T01:51:35.650Z,70.92
2022-09-04T01:52:35.640Z,71.03
2022-09-04T01:53:35.631Z,71.03
2022-09-04T01:54:35.612Z,71.06
2022-09-04T01:55:35.592Z,71.03
2022-09-04T01:56:35.613Z,71.16
2022-09-04T01:57:35.594Z,71.12
2022-09-04T01:58:35.592Z,71.26
2022-09-04T01:59:38.585Z,71.26
2022-09-04T02:00:38.536Z,71.23
2022-09-04T02:01:35.577Z,71.36
2022-09-04T02:02:35.576Z,71.47
2022-09-04T02:03:35.485Z,71.47
2022-09-04T02:04:35.464Z,71.57
2022-09-04T02:05:35.498Z,71.67
2022-09-04T02:06:35.446Z,71.67
2022-09-04T02:07:35.443Z,71.67
2022-09-04T02:08:35.419Z,71.67
2022-09-04T02:09:35.440Z,71.77
2022-09-04T02:10:35.390Z,71.77
2022-09-04T02:11:35.408Z,71.87
2022-09-04T02:12:35.367Z,71.77
2022-09-04T02:13:35.349Z,71.97
2022-09-04T02:14:35.337Z,71.97
2022-09-04T02:15:35.369Z,72.08
2022-09-04T02:16:35.375Z,72.08
2022-09-04T02:17:35.303Z,72.17
2022-09-04T02:18:35.322Z,72.17
2022-09-04T02:19:38.265Z,72.28
2022-09-04T02:20:38.268Z,72.28
2022-09-04T02:21:35.242Z,72.17
2022-09-04T02:22:35.252Z,72.28
2022-09-04T02:23:35.206Z,72.28
2022-09-04T02:24:35.201Z,72.38
2022-09-04T02:25:35.286Z,72.48
2022-09-04T02:26:35.178Z,72.62
2022-09-04T02:27:35.168Z,72.62
2022-09-04T02:28:35.145Z,72.72
2022-09-04T02:29:35.134Z,72.72
2022-09-04T02:30:35.125Z,72.72
2022-09-04T02:31:35.205Z,72.82
2022-09-04T02:32:35.124Z,72.82
2022-09-04T02:33:35.076Z,72.92
2022-09-04T02:34:35.057Z,72.92
2022-09-04T02:35:35.049Z,73.02
2022-09-04T02:36:35.050Z,73.13
2022-09-04T02:37:35.057Z,73.23
2022-09-04T02:38:35.016Z,73.33
2022-09-04T02:39:38.067Z,73.43
2022-09-04T02:40:38.007Z,73.54
2022-09-04T02:41:34.981Z,73.57
2022-09-04T02:42:34.992Z,73.67
2022-09-04T02:43:34.959Z,73.67
2022-09-04T02:44:34.933Z,73.77
2022-09-04T02:45:34.922Z,73.67
2022-09-04T02:46:34.920Z,73.77
2022-09-04T02:47:34.895Z,73.87
2022-09-04T02:48:34.945Z,73.87
2022-09-04T02:49:34.879Z,73.97
2022-09-04T02:50:34.855Z,73.97
2022-09-04T02:51:34.851Z,74.08
2022-09-04T02:52:34.854Z,74.08
2022-09-04T02:53:34.817Z,73.97
2022-09-04T02:54:34.855Z,74.08
2022-09-04T02:55:34.807Z,74.18
2022-09-04T02:56:34.806Z,74.18
2022-09-04T02:57:34.770Z,74.28
2022-09-04T02:58:34.749Z,74.28
2022-09-04T02:59:37.768Z,74.38
2022-09-04T03:00:37.830Z,74.38
2022-09-04T03:01:34.773Z,74.48
2022-09-04T03:02:34.688Z,74.48
2022-09-04T03:03:34.736Z,74.58
2022-09-04T03:04:34.666Z,74.69
2022-09-04T03:05:34.691Z,74.69
2022-09-04T03:06:34.633Z,74.72
2022-09-04T03:07:34.666Z,74.82
2022-09-04T03:08:36.195Z,74.72
2022-09-04T03:09:34.592Z,74.82
2022-09-04T03:10:34.574Z,74.82
2022-09-04T03:11:34.563Z,74.93
2022-09-04T03:12:34.585Z,75.02
2022-09-04T03:13:34.614Z,75.02
2022-09-04T03:14:34.679Z,75.02
2022-09-04T03:15:34.524Z,75.13
2022-09-04T03:16:34.549Z,75.23
2022-09-04T03:17:34.485Z,75.33
2022-09-04T03:18:34.496Z,75.33
2022-09-04T03:19:37.485Z,75.43
2022-09-04T03:20:37.466Z,75.54
2022-09-04T03:21:34.421Z,75.54
2022-09-04T03:22:34.428Z,75.64
2022-09-04T03:23:34.407Z,75.74
2022-09-04T03:24:34.378Z,75.74
2022-09-04T03:25:34.361Z,75.78
2022-09-04T03:26:34.359Z,75.88
2022-09-04T03:27:34.351Z,75.88
2022-09-04T03:28:34.501Z,75.78
2022-09-04T03:29:34.334Z,75.78
2022-09-04T03:30:34.348Z,75.88
2022-09-04T03:31:34.401Z,75.98
2022-09-04T03:32:34.274Z,75.98
2022-09-04T03:33:34.265Z,75.98
2022-09-04T03:34:34.275Z,75.98
2022-09-04T03:35:34.234Z,76.08
2022-09-04T03:36:34.217Z,76.08
2022-09-04T03:37:34.230Z,76.18
2022-09-04T03:38:34.197Z,76.18
2022-09-04T03:39:37.269Z,76.18
2022-09-04T03:40:37.202Z,76.39
2022-09-04T03:41:34.157Z,76.49
2022-09-04T03:42:34.166Z,76.49
2022-09-04T03:43:34.147Z,76.49
2022-09-04T03:44:34.143Z,76.49
2022-09-04T03:45:34.116Z,76.59
2022-09-04T03:46:34.204Z,76.59
2022-09-04T03:47:34.079Z,76.69
2022-09-04T03:48:34.059Z,76.69
2022-09-04T03:49:34.057Z,76.59
2022-09-04T03:50:34.031Z,76.69
2022-09-04T03:51:34.022Z,76.69
2022-09-04T03:52:34.176Z,76.69
2022-09-04T03:53:34.001Z,76.69
2022-09-04T03:54:34.010Z,76.79
2022-09-04T03:55:34.022Z,76.79
2022-09-04T03:56:33.983Z,76.69
2022-09-04T03:57:33.946Z,76.79
2022-09-04T03:58:33.952Z,76.69
2022-09-04T03:59:38.054Z,76.69
2022-09-04T04:00:36.954Z,76.79
2022-09-04T04:01:33.942Z,76.69
2022-09-04T04:02:33.923Z,76.69
2022-09-04T04:03:33.854Z,76.69
2022-09-04T04:04:33.845Z,76.79
2022-09-04T04:05:33.865Z,76.79
2022-09-04T04:06:33.819Z,76.79
2022-09-04T04:07:33.797Z,76.90
2022-09-04T04:08:33.796Z,76.79
2022-09-04T04:09:33.777Z,76.79
2022-09-04T04:10:33.930Z,76.79
2022-09-04T04:11:35.198Z,76.79
2022-09-04T04:12:34.744Z,76.90
2022-09-04T04:13:33.747Z,76.93
2022-09-04T04:14:33.737Z,76.93
2022-09-04T04:15:33.708Z,76.90
2022-09-04T04:16:33.823Z,76.90
2022-09-04T04:17:33.668Z,76.90
2022-09-04T04:18:33.657Z,76.83
2022-09-04T04:19:36.679Z,76.83
2022-09-04T04:20:36.661Z,76.79
2022-09-04T04:21:33.619Z,76.83
2022-09-04T04:22:33.640Z,76.93
2022-09-04T04:23:33.600Z,76.83
2022-09-04T04:24:33.574Z,76.93
2022-09-04T04:25:33.552Z,76.83
2022-09-04T04:26:33.559Z,76.83
2022-09-04T04:27:33.584Z,76.83
2022-09-04T04:28:33.563Z,76.83
2022-09-04T04:29:34.503Z,76.83
2022-09-04T04:30:33.493Z,76.93
2022-09-04T04:31:33.524Z,77.14
2022-09-04T04:32:33.497Z,77.03
2022-09-04T04:33:33.521Z,77.14
2022-09-04T04:34:34.193Z,77.24
2022-09-04T04:35:33.443Z,77.24
2022-09-04T04:36:33.426Z,77.24
2022-09-04T04:37:33.415Z,77.24
2022-09-04T04:38:33.415Z,77.24
2022-09-04T04:39:36.434Z,77.24
2022-09-04T04:40:36.370Z,77.34
2022-09-04T04:41:33.337Z,77.24
2022-09-04T04:42:33.317Z,77.24
2022-09-04T04:43:33.379Z,77.24
2022-09-04T04:44:34.295Z,77.34
2022-09-04T04:45:33.298Z,77.34
2022-09-04T04:46:33.338Z,77.34
2022-09-04T04:47:33.270Z,77.24
2022-09-04T04:48:33.249Z,77.24
2022-09-04T04:49:34.749Z,77.14
2022-09-04T04:50:33.222Z,77.24
2022-09-04T04:51:33.247Z,77.24
2022-09-04T04:52:33.200Z,77.24
2022-09-04T04:53:33.223Z,77.24
2022-09-04T04:54:33.923Z,77.24
2022-09-04T04:55:33.272Z,77.24
2022-09-04T04:56:33.150Z,77.14
2022-09-04T04:57:33.161Z,76.79
2022-09-04T04:58:33.142Z,76.35
2022-09-04T04:59:43.613Z,75.40
2022-09-04T05:00:36.162Z,74.55
2022-09-04T05:01:33.191Z,73.74
2022-09-04T05:02:33.114Z,73.09
2022-09-04T05:03:33.053Z,72.45
2022-09-04T05:04:33.796Z,71.84
2022-09-04T05:05:33.077Z,71.50
2022-09-04T05:06:33.026Z,70.86
2022-09-04T05:07:32.987Z,70.25
2022-09-04T05:08:32.967Z,69.71
2022-09-04T05:09:33.740Z,68.96
2022-09-04T05:10:32.978Z,68.52
2022-09-04T05:11:32.941Z,67.82
2022-09-04T05:12:32.918Z,67.38
2022-09-04T05:13:32.938Z,66.74
2022-09-04T05:14:33.656Z,66.30
2022-09-04T05:15:33.132Z,65.50
2022-09-04T05:16:32.928Z,65.26
2022-09-04T05:17:32.867Z,64.89
2022-09-04T05:18:32.879Z,65.09
2022-09-04T05:19:36.580Z,65.29
2022-09-04T05:20:35.874Z,65.83
2022-09-04T05:21:32.843Z,66.06
2022-09-04T05:22:34.430Z,67.11
2022-09-04T05:23:32.812Z,68.19
2022-09-04T05:24:33.521Z,69.13
2022-09-04T05:25:32.763Z,69.84
2022-09-04T05:26:32.802Z,70.15
2022-09-04T05:27:32.733Z,69.51
2022-09-04T05:28:32.723Z,68.09
2022-09-04T05:29:32.876Z,66.97
2022-09-04T05:30:32.724Z,66.77
2022-09-04T05:31:32.696Z,66.97
2022-09-04T05:32:33.696Z,66.77
2022-09-04T05:33:32.665Z,66.20
2022-09-04T05:34:33.390Z,65.16
2022-09-04T05:35:35.453Z,64.52
2022-09-04T05:36:32.677Z,63.81
2022-09-04T05:37:32.626Z,63.38
2022-09-04T05:38:32.577Z,62.74
2022-09-04T05:39:36.358Z,62.64
2022-09-04T05:40:35.577Z,62.54
2022-09-04T05:41:32.555Z,62.64
2022-09-04T05:42:32.569Z,62.77
2022-09-04T05:43:32.511Z,62.98
2022-09-04T05:44:32.510Z,62.77
2022-09-04T05:45:32.479Z,62.95
2022-09-04T05:46:32.627Z,62.44
2022-09-04T05:47:32.509Z,62.87
2022-09-04T05:48:32.452Z,63.28
2022-09-04T05:49:32.476Z,63.81
2022-09-04T05:50:32.420Z,64.02
2022-09-04T05:51:34.846Z,64.45
2022-09-04T05:52:32.428Z,64.99
2022-09-04T05:53:32.397Z,66.13
2022-09-04T05:54:32.401Z,66.47
2022-09-04T05:55:32.360Z,67.11
2022-09-04T05:56:32.343Z,67.41
2022-09-04T05:57:32.335Z,67.82
2022-09-04T05:58:32.483Z,68.32
2022-09-04T05:59:36.051Z,68.12
2022-09-04T06:00:35.295Z,68.46
2022-09-04T06:01:32.311Z,68.76
2022-09-04T06:02:32.285Z,68.76
2022-09-04T06:03:32.234Z,68.87
2022-09-04T06:04:32.278Z,69.17
2022-09-04T06:05:32.246Z,69.07
2022-09-04T06:06:32.212Z,68.87
2022-09-04T06:07:32.188Z,68.96
2022-09-04T06:08:32.513Z,68.93
2022-09-04T06:09:32.193Z,68.52
2022-09-04T06:10:32.220Z,68.73
2022-09-04T06:11:32.149Z,68.83
2022-09-04T06:12:32.180Z,69.03
2022-09-04T06:13:32.169Z,68.52
2022-09-04T06:14:32.127Z,68.52
2022-09-04T06:15:32.149Z,68.87
2022-09-04T06:16:32.272Z,69.07
2022-09-04T06:17:32.090Z,69.17
2022-09-04T06:18:32.099Z,69.37
2022-09-04T06:19:35.056Z,69.37
2022-09-04T06:20:35.128Z,69.57
2022-09-04T06:21:32.002Z,69.37
2022-09-04T06:22:32.042Z,69.57
2022-09-04T06:23:31.986Z,69.57
2022-09-04T06:24:32.006Z,69.68
2022-09-04T06:25:31.954Z,69.68
2022-09-04T06:26:31.915Z,69.57
2022-09-04T06:27:34.550Z,69.64
2022-09-04T06:28:31.904Z,68.93
2022-09-04T06:29:31.876Z,69.03
2022-09-04T06:30:31.884Z,68.93
2022-09-04T06:31:32.001Z,69.24
2022-09-04T06:32:31.829Z,69.13
2022-09-04T06:33:31.839Z,69.10
2022-09-04T06:34:31.797Z,69.10
2022-09-04T06:35:31.812Z,68.70
2022-09-04T06:36:31.777Z,68.46
2022-09-04T06:37:31.758Z,68.46
2022-09-04T06:38:31.773Z,68.16
2022-09-04T06:39:34.792Z,68.26
2022-09-04T06:40:34.750Z,68.26
2022-09-04T06:41:31.700Z,68.02
2022-09-04T06:42:31.689Z,67.62
2022-09-04T06:43:31.671Z,67.72
2022-09-04T06:44:31.675Z,67.62
2022-09-04T06:45:31.672Z,67.42
2022-09-04T06:46:31.707Z,67.62
2022-09-04T06:47:31.654Z,67.32
2022-09-04T06:48:31.622Z,67.22
2022-09-04T06:49:31.594Z,67.11
2022-09-04T06:50:31.585Z,67.18
2022-09-04T06:51:32.673Z,66.88
2022-09-04T06:52:31.593Z,66.78
2022-09-04T06:53:31.539Z,66.85
2022-09-04T06:54:32.240Z,66.75
2022-09-04T06:55:31.514Z,66.72
2022-09-04T06:56:31.503Z,65.81
2022-09-04T06:57:31.524Z,65.81
2022-09-04T06:58:31.487Z,65.47
2022-09-04T06:59:34.485Z,64.87
2022-09-04T07:00:34.465Z,64.76
2022-09-04T07:01:31.542Z,64.76
2022-09-04T07:02:31.573Z,65.10
2022-09-04T07:03:31.416Z,65.30
2022-09-04T07:04:31.420Z,65.67
2022-09-04T07:05:31.381Z,65.30
2022-09-04T07:06:31.372Z,65.07
2022-09-04T07:07:31.359Z,65.37
2022-09-04T07:08:31.350Z,64.87
2022-09-04T07:09:31.391Z,64.76
2022-09-04T07:10:31.322Z,64.84
2022-09-04T07:11:31.303Z,65.04
2022-09-04T07:12:31.292Z,64.50
2022-09-04T07:13:31.281Z,64.03
2022-09-04T07:14:31.274Z,63.73
2022-09-04T07:15:31.378Z,64.13
2022-09-04T07:16:31.287Z,64.23
2022-09-04T07:17:31.233Z,64.13
2022-09-04T07:18:31.238Z,64.13
2022-09-04T07:19:34.225Z,64.53
2022-09-04T07:20:34.205Z,64.13
2022-09-04T07:21:31.172Z,64.00
2022-09-04T07:22:31.163Z,64.10
2022-09-04T07:23:31.145Z,63.79
2022-09-04T07:24:31.156Z,63.46
2022-09-04T07:25:31.157Z,63.67
2022-09-04T07:26:31.108Z,62.96
2022-09-04T07:27:31.089Z,63.33
2022-09-04T07:28:31.079Z,63.03
2022-09-04T07:29:31.058Z,62.63
2022-09-04T07:30:31.084Z,62.22
2022-09-04T07:31:31.073Z,62.02
2022-09-04T07:32:31.020Z,62.43
2022-09-04T07:33:31.000Z,62.52
2022-09-04T07:34:30.998Z,62.32
2022-09-04T07:35:31.020Z,62.22
2022-09-04T07:36:31.974Z,62.02
2022-09-04T07:37:30.950Z,62.02
2022-09-04T07:38:30.931Z,62.32
2022-09-04T07:39:33.997Z,62.43
2022-09-04T07:40:33.943Z,62.19
2022-09-04T07:41:30.914Z,61.99
2022-09-04T07:42:31.111Z,61.99
2022-09-04T07:43:30.862Z,61.69
2022-09-04T07:44:30.853Z,61.59
2022-09-04T07:45:30.854Z,61.49
2022-09-04T07:46:30.878Z,61.59
2022-09-04T07:47:30.806Z,61.69
2022-09-04T07:48:30.794Z,61.89
2022-09-04T07:49:30.775Z,61.89
2022-09-04T07:50:30.766Z,61.36
2022-09-04T07:51:30.776Z,61.56
2022-09-04T07:52:30.737Z,61.56
2022-09-04T07:53:30.726Z,61.36
2022-09-04T07:54:30.708Z,61.36
2022-09-04T07:55:30.698Z,61.56
2022-09-04T07:56:30.727Z,61.56
2022-09-04T07:57:30.659Z,61.96
2022-09-04T07:58:30.660Z,61.96
2022-09-04T07:59:33.640Z,62.16
2022-09-04T08:00:33.653Z,62.13
2022-09-04T08:01:30.680Z,62.24
2022-09-04T08:02:30.639Z,61.03
2022-09-04T08:03:30.583Z,60.69
2022-09-04T08:04:30.607Z,60.80
2022-09-04T08:05:30.562Z,60.69
2022-09-04T08:06:30.543Z,60.89
2022-09-04T08:07:30.522Z,60.60
2022-09-04T08:08:30.536Z,60.80
2022-09-04T08:09:30.495Z,61.00
2022-09-04T08:10:30.485Z,60.67
2022-09-04T08:11:30.475Z,60.87
2022-09-04T08:12:30.485Z,60.87
2022-09-04T08:13:30.446Z,60.24
2022-09-04T08:14:30.425Z,60.13
2022-09-04T08:15:30.495Z,59.94
2022-09-04T08:16:30.426Z,60.13
2022-09-04T08:17:30.387Z,59.83
2022-09-04T08:18:30.379Z,60.36
2022-09-04T08:19:33.400Z,60.24
2022-09-04T08:20:33.358Z,60.33
2022-09-04T08:21:30.328Z,60.44
2022-09-04T08:22:30.339Z,60.03
2022-09-04T08:23:30.309Z,60.24
2022-09-04T08:24:30.342Z,60.41
2022-09-04T08:25:30.281Z,60.11
2022-09-04T08:26:30.261Z,59.80
2022-09-04T08:27:30.249Z,59.88
2022-09-04T08:28:30.239Z,59.27
2022-09-04T08:29:30.220Z,59.58
2022-09-04T08:30:30.232Z,58.97
2022-09-04T08:31:30.255Z,59.17
2022-09-04T08:32:38.109Z,58.87
2022-09-04T08:33:31.164Z,58.97
2022-09-04T08:34:30.156Z,58.97
2022-09-04T08:35:30.294Z,59.17
2022-09-04T08:36:30.124Z,58.87
2022-09-04T08:37:30.114Z,59.08
2022-09-04T08:38:30.106Z,58.97
2022-09-04T08:39:33.149Z,59.17
2022-09-04T08:40:33.117Z,59.05
2022-09-04T08:41:30.054Z,59.05
2022-09-04T08:42:30.047Z,58.94
2022-09-04T08:43:30.054Z,58.81
2022-09-04T08:44:30.045Z,58.42
2022-09-04T08:45:30.018Z,58.09
2022-09-04T08:46:30.213Z,57.98
2022-09-04T08:47:29.984Z,58.31
2022-09-04T08:48:29.968Z,58.29
2022-09-04T08:49:30.018Z,58.59
2022-09-04T08:50:29.940Z,58.99
2022-09-04T08:51:29.939Z,58.09
2022-09-04T08:52:29.911Z,57.98
2022-09-04T08:53:29.893Z,58.18
2022-09-04T08:54:29.896Z,58.06
2022-09-04T08:55:29.902Z,58.26
2022-09-04T08:56:29.871Z,58.23
2022-09-04T08:57:29.844Z,58.03
2022-09-04T08:58:29.827Z,57.53
2022-09-04T08:59:32.826Z,57.53
2022-09-04T09:00:32.864Z,57.73
2022-09-04T09:01:29.823Z,57.93
2022-09-04T09:02:29.797Z,57.43
2022-09-04T09:03:29.768Z,57.43
2022-09-04T09:04:29.768Z,57.23
2022-09-04T09:05:29.737Z,57.23
2022-09-04T09:06:29.791Z,57.33
2022-09-04T09:07:29.770Z,57.13
2022-09-04T09:08:31.652Z,57.23
2022-09-04T09:09:29.718Z,57.53
2022-09-04T09:10:29.678Z,57.10
2022-09-04T09:11:29.669Z,57.30
2022-09-04T09:12:40.695Z,57.50
2022-09-04T09:13:30.728Z,57.28
2022-09-04T09:14:29.629Z,56.80
2022-09-04T09:15:29.610Z,56.77
2022-09-04T09:16:29.664Z,56.67
2022-09-04T09:17:34.458Z,56.77
2022-09-04T09:18:30.583Z,56.87
2022-09-04T09:19:32.600Z,57.24
2022-09-04T09:20:32.611Z,56.65
2022-09-04T09:21:29.523Z,55.65
2022-09-04T09:22:29.534Z,56.05
2022-09-04T09:23:29.524Z,56.05
2022-09-04T09:24:29.675Z,56.15
2022-09-04T09:25:29.488Z,55.65
2022-09-04T09:26:29.493Z,56.05
2022-09-04T09:27:29.464Z,56.24
2022-09-04T09:28:29.437Z,55.85
2022-09-04T09:29:29.425Z,55.44
2022-09-04T09:30:29.522Z,55.55
2022-09-04T09:31:29.400Z,55.24
2022-09-04T09:32:29.368Z,55.35
2022-09-04T09:33:29.379Z,55.35
2022-09-04T09:34:29.350Z,55.55
2022-09-04T09:35:29.329Z,56.35
2022-09-04T09:36:29.340Z,55.42
2022-09-04T09:37:29.300Z,55.29
2022-09-04T09:38:29.288Z,55.19
2022-09-04T09:39:32.315Z,55.02
2022-09-04T09:40:32.303Z,55.09
2022-09-04T09:41:29.253Z,55.49
2022-09-04T09:42:29.234Z,54.79
2022-09-04T09:43:29.224Z,54.90
2022-09-04T09:44:29.204Z,55.19
2022-09-04T09:45:29.234Z,55.19
2022-09-04T09:46:29.308Z,55.19
2022-09-04T09:47:29.194Z,55.09
2022-09-04T09:48:29.165Z,55.07
2022-09-04T09:49:29.157Z,54.17
2022-09-04T09:50:29.150Z,53.87
2022-09-04T09:51:29.177Z,54.17
2022-09-04T09:52:29.147Z,54.49
2022-09-04T09:53:29.120Z,54.47
2022-09-04T09:54:29.140Z,54.17
2022-09-04T09:55:29.078Z,54.14
2022-09-04T09:56:29.058Z,53.94
2022-09-04T09:57:33.738Z,53.72
2022-09-04T09:58:30.032Z,53.14
2022-09-04T09:59:32.050Z,53.64
2022-09-04T10:00:32.091Z,53.31
2022-09-04T10:01:29.039Z,53.12
2022-09-04T10:02:29.042Z,52.92
2022-09-04T10:03:29.001Z,53.12
2022-09-04T10:04:34.211Z,52.79
2022-09-04T10:05:29.926Z,52.99
2022-09-04T10:06:28.944Z,52.29
2022-09-04T10:07:28.950Z,51.89
2022-09-04T10:08:36.111Z,52.09
2022-09-04T10:09:29.894Z,52.32
2022-09-04T10:10:28.866Z,52.62
2022-09-04T10:11:28.896Z,52.82
2022-09-04T10:12:28.846Z,52.79
2022-09-04T10:13:28.848Z,52.89
2022-09-04T10:14:28.864Z,52.29
2022-09-04T10:15:28.808Z,52.92
2022-09-04T10:16:28.879Z,52.82
2022-09-04T10:17:28.799Z,52.39
2022-09-04T10:18:28.782Z,52.09
2022-09-04T10:19:31.749Z,52.17
2022-09-04T10:20:31.789Z,52.27
2022-09-04T10:21:28.734Z,51.47
2022-09-04T10:22:28.748Z,51.67
2022-09-04T10:23:28.690Z,51.47
2022-09-04T10:24:28.683Z,51.47
2022-09-04T10:25:28.691Z,51.47
2022-09-04T10:26:29.191Z,51.17
2022-09-04T10:27:28.653Z,51.37
2022-09-04T10:28:28.654Z,51.07
2022-09-04T10:29:28.614Z,51.25
2022-09-04T10:30:28.644Z,51.15
2022-09-04T10:31:28.666Z,50.92
2022-09-04T10:32:28.576Z,50.52
2022-09-04T10:33:28.580Z,50.73
2022-09-04T10:34:28.557Z,50.60
2022-09-04T10:35:28.526Z,50.30
2022-09-04T10:36:28.533Z,49.30
2022-09-04T10:37:28.538Z,49.63
2022-09-04T10:38:28.498Z,49.60
2022-09-04T10:39:31.519Z,49.70
2022-09-04T10:40:31.481Z,49.68
2022-09-04T10:41:28.472Z,49.28
2022-09-04T10:42:28.449Z,48.88
2022-09-04T10:43:28.461Z,49.01
2022-09-04T10:44:28.402Z,48.50
2022-09-04T10:45:28.432Z,48.71
2022-09-04T10:46:28.411Z,49.51
2022-09-04T10:47:28.366Z,48.98
2022-09-04T10:48:28.836Z,48.88
2022-09-04T10:49:28.358Z,49.10
2022-09-04T10:50:28.324Z,49.21
2022-09-04T10:51:28.335Z,49.10
2022-09-04T10:52:28.327Z,48.80
2022-09-04T10:53:28.617Z,48.11
2022-09-04T10:54:28.286Z,48.19
2022-09-04T10:55:28.317Z,48.58
2022-09-04T10:56:28.257Z,48.76
2022-09-04T10:57:28.237Z,48.36
2022-09-04T10:58:28.229Z,48.24
2022-09-04T10:59:39.947Z,48.14
2022-09-04T11:00:31.192Z,48.02
2022-09-04T11:01:28.306Z,46.42
2022-09-04T11:02:28.201Z,46.33
2022-09-04T11:03:28.200Z,46.62
2022-09-04T11:04:28.130Z,47.02
2022-09-04T11:05:28.120Z,46.83
2022-09-04T11:06:28.782Z,46.80
2022-09-04T11:07:28.851Z,46.50
2022-09-04T11:08:28.073Z,46.60
2022-09-04T11:09:28.094Z,46.60
2022-09-04T11:10:28.062Z,46.80
2022-09-04T11:11:28.044Z,45.89
2022-09-04T11:12:28.023Z,46.48
2022-09-04T11:13:28.015Z,45.79
2022-09-04T11:14:28.056Z,45.51
2022-09-04T11:15:27.987Z,45.83
2022-09-04T11:16:28.005Z,46.65
2022-09-04T11:17:27.959Z,47.13
2022-09-04T11:18:27.937Z,46.31
2022-09-04T11:19:30.960Z,46.68
2022-09-04T11:20:30.948Z,46.48
2022-09-04T11:21:27.928Z,46.66
2022-09-04T11:22:27.886Z,46.16
2022-09-04T11:23:27.879Z,45.94
2022-09-04T11:24:27.860Z,44.87
2022-09-04T11:25:27.850Z,44.87
2022-09-04T11:26:27.868Z,45.09
2022-09-04T11:27:27.820Z,45.61
2022-09-04T11:28:27.800Z,45.90
2022-09-04T11:29:27.793Z,46.01
2022-09-04T11:30:27.780Z,45.81
2022-09-04T11:31:27.870Z,46.11
2022-09-04T11:32:27.751Z,45.61
2022-09-04T11:33:27.737Z,45.71
2022-09-04T11:34:27.747Z,45.81
2022-09-04T11:35:28.560Z,46.01
2022-09-04T11:36:27.794Z,46.11
2022-09-04T11:37:27.899Z,46.20
2022-09-04T11:38:27.768Z,46.19
2022-09-04T11:39:30.732Z,45.68
2022-09-04T11:40:30.651Z,45.39
2022-09-04T11:41:27.638Z,45.39
2022-09-04T11:42:27.633Z,45.29
2022-09-04T11:43:27.631Z,45.37
2022-09-04T11:44:27.590Z,45.27
2022-09-04T11:45:27.603Z,45.19
2022-09-04T11:46:27.569Z,45.11
2022-09-04T11:47:27.544Z,45.71
2022-09-04T11:48:27.556Z,45.71
2022-09-04T11:49:27.514Z,45.29
2022-09-04T11:50:27.497Z,45.29
2022-09-04T11:51:27.497Z,45.09
2022-09-04T11:52:27.466Z,45.39
2022-09-04T11:53:27.484Z,45.59
2022-09-04T11:54:27.472Z,45.39
2022-09-04T11:55:27.427Z,45.86
2022-09-04T11:56:27.416Z,45.86
2022-09-04T11:57:27.399Z,45.05
2022-09-04T11:58:27.386Z,44.45
2022-09-04T11:59:30.566Z,44.37
2022-09-04T12:00:30.370Z,44.97
2022-09-04T12:01:27.350Z,44.99
2022-09-04T12:02:27.375Z,45.29
2022-09-04T12:03:27.320Z,45.59
2022-09-04T12:04:27.392Z,45.79
2022-09-04T12:05:27.322Z,45.68
2022-09-04T12:06:27.312Z,45.56
2022-09-04T12:07:31.902Z,44.97
2022-09-04T12:08:28.256Z,45.17
2022-09-04T12:09:27.234Z,44.65
2022-09-04T12:10:27.245Z,43.85
2022-09-04T12:11:27.205Z,44.33
2022-09-04T12:12:27.197Z,43.91
2022-09-04T12:13:27.583Z,44.11
2022-09-04T12:14:27.247Z,43.82
2022-09-04T12:15:27.169Z,43.91
2022-09-04T12:16:27.303Z,43.91
2022-09-04T12:17:27.128Z,44.13
2022-09-04T12:18:27.142Z,44.15
2022-09-04T12:19:30.099Z,44.15
2022-09-04T12:20:30.101Z,44.25
2022-09-04T12:21:27.091Z,44.85
2022-09-04T12:22:27.053Z,44.63
2022-09-04T12:23:27.143Z,44.23
2022-09-04T12:24:27.028Z,44.43
2022-09-04T12:25:27.021Z,44.73
2022-09-04T12:26:27.004Z,45.00
2022-09-04T12:27:27.055Z,44.19
2022-09-04T12:28:26.974Z,43.99
2022-09-04T12:29:26.972Z,43.32
2022-09-04T12:30:26.945Z,43.52
2022-09-04T12:31:26.959Z,43.74
2022-09-04T12:32:26.926Z,44.11
2022-09-04T12:33:26.987Z,43.42
2022-09-04T12:34:26.957Z,43.71
2022-09-04T12:35:31.621Z,43.40
2022-09-04T12:36:27.893Z,42.82
2022-09-04T12:37:26.859Z,43.04
2022-09-04T12:38:26.910Z,43.12
2022-09-04T12:39:29.914Z,43.24
2022-09-04T12:40:29.901Z,43.64
2022-09-04T12:41:26.801Z,44.04
2022-09-04T12:42:26.783Z,44.31
2022-09-04T12:43:26.780Z,43.82
2022-09-04T12:44:26.812Z,43.52
2022-09-04T12:45:26.786Z,43.12
2022-09-04T12:46:26.735Z,43.42
2022-09-04T12:47:26.792Z,44.31
2022-09-04T12:48:26.706Z,43.02
2022-09-04T12:49:26.735Z,42.63
2022-09-04T12:50:26.685Z,43.40
2022-09-04T12:51:26.710Z,43.20
2022-09-04T12:52:26.657Z,43.00